sensor_id;sensor_type;location;lat;lon;timestamp;pressure;altitude;pressure_sealevel;temperature;humidity
64080;BME280;51042;49.696;10.808;2023-05-10T00:01:55;97703.81;;;15.21;100.00
64080;BME280;51042;49.696;10.808;2023-05-10T00:04:21;97701.22;;;15.12;100.00
64080;BME280;51042;49.696;10.808;2023-05-10T00:06:46;97697.09;;;15.07;100.00
64080;BME280;51042;49.696;10.808;2023-05-10T00:09:11;97695.78;;;15.03;100.00
64080;BME280;51042;49.696;10.808;2023-05-10T00:11:37;97701.72;;;14.96;100.00
64080;BME280;51042;49.696;10.808;2023-05-10T00:14:03;97699.16;;;14.92;100.00
64080;BME280;51042;49.696;10.808;2023-05-10T00:16:28;97695.94;;;14.94;100.00
64080;BME280;51042;49.696;10.808;2023-05-10T00:18:53;97687.16;;;14.95;100.00
64080;BME280;51042;49.696;10.808;2023-05-10T00:21:19;97695.47;;;14.95;100.00
64080;BME280;51042;49.696;10.808;2023-05-10T00:23:44;97685.13;;;14.96;100.00
64080;BME280;51042;49.696;10.808;2023-05-10T00:26:10;97685.91;;;14.96;100.00
64080;BME280;51042;49.696;10.808;2023-05-10T00:28:35;97680.59;;;14.93;100.00
64080;BME280;51042;49.696;10.808;2023-05-10T00:31:00;97684.22;;;14.84;100.00
64080;BME280;51042;49.696;10.808;2023-05-10T00:33:26;97686.91;;;14.79;100.00
64080;BME280;51042;49.696;10.808;2023-05-10T00:35:51;97681.38;;;14.79;100.00
64080;BME280;51042;49.696;10.808;2023-05-10T00:38:17;97685.38;;;14.78;100.00
64080;BME280;51042;49.696;10.808;2023-05-10T00:40:42;97685.88;;;14.76;100.00
64080;BME280;51042;49.696;10.808;2023-05-10T00:43:08;97689.13;;;14.75;100.00
64080;BME280;51042;49.696;10.808;2023-05-10T00:45:34;97685.03;;;14.70;100.00
64080;BME280;51042;49.696;10.808;2023-05-10T00:48:01;97686.75;;;14.67;100.00
64080;BME280;51042;49.696;10.808;2023-05-10T00:50:28;97691.91;;;14.60;100.00
64080;BME280;51042;49.696;10.808;2023-05-10T00:52:54;97678.31;;;14.56;100.00
64080;BME280;51042;49.696;10.808;2023-05-10T00:55:20;97682.78;;;14.54;100.00
64080;BME280;51042;49.696;10.808;2023-05-10T00:57:45;97680.78;;;14.54;100.00
64080;BME280;51042;49.696;10.808;2023-05-10T01:00:12;97684.97;;;14.50;100.00
64080;BME280;51042;49.696;10.808;2023-05-10T01:02:42;97678.97;;;14.51;100.00
64080;BME280;51042;49.696;10.808;2023-05-10T01:05:08;97672.91;;;14.47;100.00
64080;BME280;51042;49.696;10.808;2023-05-10T01:07:33;97685.94;;;14.47;100.00
64080;BME280;51042;49.696;10.808;2023-05-10T01:09:59;97680.91;;;14.45;100.00
64080;BME280;51042;49.696;10.808;2023-05-10T01:12:24;97684.13;;;14.44;100.00
64080;BME280;51042;49.696;10.808;2023-05-10T01:14:50;97683.88;;;14.42;100.00
64080;BME280;51042;49.696;10.808;2023-05-10T01:17:16;97681.28;;;14.38;100.00
64080;BME280;51042;49.696;10.808;2023-05-10T01:19:42;97684.97;;;14.35;100.00
64080;BME280;51042;49.696;10.808;2023-05-10T01:22:29;97677.28;;;14.39;100.00
64080;BME280;51042;49.696;10.808;2023-05-10T01:25:23;97682.81;;;14.39;100.00
64080;BME280;51042;49.696;10.808;2023-05-10T01:38:57;97681.72;;;14.37;100.00
64080;BME280;51042;49.696;10.808;2023-05-10T01:44:40;97685.28;;;14.37;100.00
64080;BME280;51042;49.696;10.808;2023-05-10T01:47:35;97688.03;;;14.37;100.00
64080;BME280;51042;49.696;10.808;2023-05-10T01:50:05;97688.03;;;14.37;100.00
64080;BME280;51042;49.696;10.808;2023-05-10T01:52:37;97684.97;;;14.35;100.00
64080;BME280;51042;49.696;10.808;2023-05-10T01:55:06;97681.47;;;14.35;100.00
64080;BME280;51042;49.696;10.808;2023-05-10T01:57:35;97689.75;;;14.35;100.00
64080;BME280;51042;49.696;10.808;2023-05-10T02:00:04;97692.75;;;14.37;100.00
64080;BME280;51042;49.696;10.808;2023-05-10T02:02:35;97685.28;;;14.37;100.00
64080;BME280;51042;49.696;10.808;2023-05-10T02:05:02;97687.16;;;14.31;100.00
64080;BME280;51042;49.696;10.808;2023-05-10T02:07:30;97685.94;;;14.32;100.00
64080;BME280;51042;49.696;10.808;2023-05-10T02:09:58;97679.16;;;14.33;100.00
64080;BME280;51042;49.696;10.808;2023-05-10T02:12:24;97694.31;;;14.38;100.00
64080;BME280;51042;49.696;10.808;2023-05-10T02:14:52;97692.63;;;14.40;100.00
64080;BME280;51042;49.696;10.808;2023-05-10T02:17:18;97686.81;;;14.38;100.00
64080;BME280;51042;49.696;10.808;2023-05-10T02:19:45;97691.91;;;14.30;100.00
64080;BME280;51042;49.696;10.808;2023-05-10T02:22:12;97697.94;;;14.29;100.00
64080;BME280;51042;49.696;10.808;2023-05-10T02:24:38;97700.50;;;14.32;100.00
64080;BME280;51042;49.696;10.808;2023-05-10T02:27:05;97695.94;;;14.29;100.00
64080;BME280;51042;49.696;10.808;2023-05-10T02:29:32;97701.25;;;14.04;100.00
64080;BME280;51042;49.696;10.808;2023-05-10T02:31:59;97706.13;;;13.94;100.00
64080;BME280;51042;49.696;10.808;2023-05-10T02:34:25;97712.16;;;13.83;100.00
64080;BME280;51042;49.696;10.808;2023-05-10T02:36:52;97714.56;;;13.76;100.00
64080;BME280;51042;49.696;10.808;2023-05-10T02:39:18;97712.25;;;13.74;100.00
64080;BME280;51042;49.696;10.808;2023-05-10T02:41:45;97711.97;;;13.72;100.00
64080;BME280;51042;49.696;10.808;2023-05-10T02:44:13;97706.63;;;13.69;100.00
64080;BME280;51042;49.696;10.808;2023-05-10T02:46:41;97709.88;;;13.67;100.00
64080;BME280;51042;49.696;10.808;2023-05-10T02:49:07;97704.72;;;13.60;100.00
64080;BME280;51042;49.696;10.808;2023-05-10T02:51:34;97704.44;;;13.58;100.00
64080;BME280;51042;49.696;10.808;2023-05-10T02:54:04;97707.94;;;13.59;100.00
64080;BME280;51042;49.696;10.808;2023-05-10T02:56:34;97704.72;;;13.60;100.00
64080;BME280;51042;49.696;10.808;2023-05-10T02:59:01;97702.25;;;13.62;100.00
64080;BME280;51042;49.696;10.808;2023-05-10T03:01:26;97705.47;;;13.61;100.00
64080;BME280;51042;49.696;10.808;2023-05-10T03:03:52;97692.75;;;13.63;100.00
64080;BME280;51042;49.696;10.808;2023-05-10T03:06:17;97700.06;;;13.66;100.00
64080;BME280;51042;49.696;10.808;2023-05-10T03:08:43;97698.94;;;13.58;100.00
64080;BME280;51042;49.696;10.808;2023-05-10T03:17:04;97707.81;;;13.53;100.00
64080;BME280;51042;49.696;10.808;2023-05-10T03:19:43;97710.78;;;13.49;100.00
64080;BME280;51042;49.696;10.808;2023-05-10T03:22:18;97708.47;;;13.48;100.00
64080;BME280;51042;49.696;10.808;2023-05-10T03:24:48;97706.94;;;13.47;100.00
64080;BME280;51042;49.696;10.808;2023-05-10T03:27:14;97714.47;;;13.46;100.00
64080;BME280;51042;49.696;10.808;2023-05-10T03:29:40;97711.72;;;13.46;100.00
64080;BME280;51042;49.696;10.808;2023-05-10T03:32:08;97716.75;;;13.48;100.00
64080;BME280;51042;49.696;10.808;2023-05-10T03:34:33;97716.75;;;13.48;100.00
64080;BME280;51042;49.696;10.808;2023-05-10T03:36:59;97720.50;;;13.36;100.00
64080;BME280;51042;49.696;10.808;2023-05-10T03:39:24;97723.75;;;13.34;100.00
64080;BME280;51042;49.696;10.808;2023-05-10T03:41:49;97728.00;;;13.35;100.00
64080;BME280;51042;49.696;10.808;2023-05-10T03:44:15;97732.50;;;13.33;100.00
64080;BME280;51042;49.696;10.808;2023-05-10T03:46:41;97731.53;;;13.36;100.00
64080;BME280;51042;49.696;10.808;2023-05-10T03:49:06;97733.06;;;13.37;100.00
64080;BME280;51042;49.696;10.808;2023-05-10T03:51:31;97733.72;;;13.32;100.00
64080;BME280;51042;49.696;10.808;2023-05-10T03:53:57;97735.91;;;13.28;100.00
64080;BME280;51042;49.696;10.808;2023-05-10T03:56:22;97739.56;;;13.25;100.00
64080;BME280;51042;49.696;10.808;2023-05-10T03:58:47;97742.31;;;13.25;100.00
64080;BME280;51042;49.696;10.808;2023-05-10T04:01:15;97747.69;;;13.28;100.00
64080;BME280;51042;49.696;10.808;2023-05-10T04:03:40;97752.44;;;13.28;100.00
64080;BME280;51042;49.696;10.808;2023-05-10T04:06:05;97753.34;;;13.25;100.00
64080;BME280;51042;49.696;10.808;2023-05-10T04:08:33;97750.59;;;13.25;100.00
64080;BME280;51042;49.696;10.808;2023-05-10T04:11:05;97756.56;;;13.23;100.00
64080;BME280;51042;49.696;10.808;2023-05-10T04:13:33;97752.19;;;13.17;100.00
64080;BME280;51042;49.696;10.808;2023-05-10T04:15:59;97752.78;;;13.21;100.00
64080;BME280;51042;49.696;10.808;2023-05-10T04:18:25;97757.06;;;13.22;100.00
64080;BME280;51042;49.696;10.808;2023-05-10T04:20:50;97765.59;;;13.24;100.00
64080;BME280;51042;49.696;10.808;2023-05-10T04:23:15;97768.34;;;13.24;100.00
64080;BME280;51042;49.696;10.808;2023-05-10T04:25:41;97764.38;;;13.25;100.00
64080;BME280;51042;49.696;10.808;2023-05-10T04:28:07;97774.16;;;13.26;100.00
64080;BME280;51042;49.696;10.808;2023-05-10T04:30:32;97764.66;;;13.27;100.00
64080;BME280;51042;49.696;10.808;2023-05-10T04:32:57;97771.41;;;13.26;100.00
64080;BME280;51042;49.696;10.808;2023-05-10T04:35:23;97781.97;;;13.27;100.00
64080;BME280;51042;49.696;10.808;2023-05-10T04:37:48;97778.56;;;13.32;100.00
64080;BME280;51042;49.696;10.808;2023-05-10T04:40:14;97784.53;;;13.31;100.00
64080;BME280;51042;49.696;10.808;2023-05-10T04:42:39;97783.97;;;13.27;100.00
64080;BME280;51042;49.696;10.808;2023-05-10T04:45:06;97780.91;;;13.25;100.00
64080;BME280;51042;49.696;10.808;2023-05-10T04:47:32;97784.44;;;13.25;100.00
64080;BME280;51042;49.696;10.808;2023-05-10T04:49:57;97790.69;;;13.26;100.00
64080;BME280;51042;49.696;10.808;2023-05-10T04:52:23;97787.00;;;13.29;100.00
64080;BME280;51042;49.696;10.808;2023-05-10T04:54:49;97794.66;;;13.34;100.00
64080;BME280;51042;49.696;10.808;2023-05-10T04:57:14;97790.81;;;13.31;100.00
64080;BME280;51042;49.696;10.808;2023-05-10T04:59:39;97801.50;;;13.38;100.00
64080;BME280;51042;49.696;10.808;2023-05-10T05:02:05;97804.72;;;13.37;100.00
64080;BME280;51042;49.696;10.808;2023-05-10T05:04:30;97803.78;;;13.40;100.00
64080;BME280;51042;49.696;10.808;2023-05-10T05:06:56;97804.69;;;13.46;100.00
64080;BME280;51042;49.696;10.808;2023-05-10T05:09:21;97813.00;;;13.61;100.00
64080;BME280;51042;49.696;10.808;2023-05-10T05:11:46;97809.25;;;13.73;100.00
64080;BME280;51042;49.696;10.808;2023-05-10T05:14:12;97808.03;;;13.88;100.00
64080;BME280;51042;49.696;10.808;2023-05-10T05:16:37;97821.13;;;14.03;100.00
64080;BME280;51042;49.696;10.808;2023-05-10T05:19:03;97816.28;;;14.12;100.00
64080;BME280;51042;49.696;10.808;2023-05-10T05:21:29;97822.09;;;14.14;100.00
64080;BME280;51042;49.696;10.808;2023-05-10T05:23:54;97823.69;;;14.06;100.00
64080;BME280;51042;49.696;10.808;2023-05-10T05:26:19;97824.66;;;14.03;100.00
64080;BME280;51042;49.696;10.808;2023-05-10T05:28:45;97825.97;;;13.93;100.00
64080;BME280;51042;49.696;10.808;2023-05-10T05:31:10;97831.47;;;13.93;100.00
64080;BME280;51042;49.696;10.808;2023-05-10T05:33:36;97840.63;;;13.99;100.00
64080;BME280;51042;49.696;10.808;2023-05-10T05:36:02;97834.16;;;14.02;100.00
64080;BME280;51042;49.696;10.808;2023-05-10T05:38:30;97831.69;;;14.04;100.00
64080;BME280;51042;49.696;10.808;2023-05-10T05:40:56;97837.72;;;14.17;100.00
64080;BME280;51042;49.696;10.808;2023-05-10T05:43:22;97834.88;;;14.26;100.00
64080;BME280;51042;49.696;10.808;2023-05-10T05:45:47;97831.97;;;14.45;100.00
64080;BME280;51042;49.696;10.808;2023-05-10T05:48:13;97832.16;;;14.56;100.00
64080;BME280;51042;49.696;10.808;2023-05-10T05:50:38;97840.09;;;14.63;100.00
64080;BME280;51042;49.696;10.808;2023-05-10T05:53:03;97840.34;;;14.50;100.00
64080;BME280;51042;49.696;10.808;2023-05-10T05:55:28;97844.19;;;14.53;100.00
64080;BME280;51042;49.696;10.808;2023-05-10T05:57:56;97847.88;;;14.50;100.00
64080;BME280;51042;49.696;10.808;2023-05-10T06:00:21;97859.78;;;14.56;100.00
64080;BME280;51042;49.696;10.808;2023-05-10T06:02:47;97859.72;;;14.65;100.00
64080;BME280;51042;49.696;10.808;2023-05-10T06:05:13;97867.91;;;14.59;100.00
64080;BME280;51042;49.696;10.808;2023-05-10T06:07:38;97865.03;;;14.68;100.00
64080;BME280;51042;49.696;10.808;2023-05-10T06:10:07;97874.84;;;14.69;100.00
64080;BME280;51042;49.696;10.808;2023-05-10T06:12:32;97868.66;;;14.75;100.00
64080;BME280;51042;49.696;10.808;2023-05-10T06:14:58;97874.38;;;15.00;100.00
64080;BME280;51042;49.696;10.808;2023-05-10T06:17:23;97875.78;;;15.25;100.00
64080;BME280;51042;49.696;10.808;2023-05-10T06:19:50;97880.47;;;15.19;100.00
64080;BME280;51042;49.696;10.808;2023-05-10T06:22:15;97882.81;;;15.26;100.00
64080;BME280;51042;49.696;10.808;2023-05-10T06:24:40;97880.34;;;15.13;100.00
64080;BME280;51042;49.696;10.808;2023-05-10T06:27:06;97894.38;;;15.25;100.00
64080;BME280;51042;49.696;10.808;2023-05-10T06:29:31;97887.94;;;15.48;100.00
64080;BME280;51042;49.696;10.808;2023-05-10T06:31:57;97895.44;;;15.62;100.00
64080;BME280;51042;49.696;10.808;2023-05-10T06:34:23;97892.59;;;15.71;100.00
64080;BME280;51042;49.696;10.808;2023-05-10T06:36:49;97891.22;;;15.81;100.00
64080;BME280;51042;49.696;10.808;2023-05-10T06:39:14;97909.34;;;15.82;100.00
64080;BME280;51042;49.696;10.808;2023-05-10T06:41:39;97892.13;;;15.93;100.00
64080;BME280;51042;49.696;10.808;2023-05-10T06:44:05;97893.00;;;16.05;100.00
64080;BME280;51042;49.696;10.808;2023-05-10T06:46:30;97892.38;;;16.15;100.00
64080;BME280;51042;49.696;10.808;2023-05-10T06:48:56;97893.22;;;16.21;100.00
64080;BME280;51042;49.696;10.808;2023-05-10T06:51:21;97890.03;;;16.28;100.00
64080;BME280;51042;49.696;10.808;2023-05-10T06:53:46;97888.03;;;16.29;100.00
64080;BME280;51042;49.696;10.808;2023-05-10T06:56:12;97892.31;;;16.30;100.00
64080;BME280;51042;49.696;10.808;2023-05-10T06:58:38;97890.78;;;16.29;100.00
64080;BME280;51042;49.696;10.808;2023-05-10T07:01:03;97889.84;;;16.32;100.00
64080;BME280;51042;49.696;10.808;2023-05-10T07:03:30;97888.94;;;16.61;100.00
64080;BME280;51042;49.696;10.808;2023-05-10T07:05:59;97895.00;;;16.45;99.97
64080;BME280;51042;49.696;10.808;2023-05-10T07:08:26;97894.31;;;16.50;100.00
64080;BME280;51042;49.696;10.808;2023-05-10T07:10:51;97889.97;;;16.43;100.00
64080;BME280;51042;49.696;10.808;2023-05-10T07:13:17;97897.44;;;16.37;100.00
64080;BME280;51042;49.696;10.808;2023-05-10T07:15:42;97898.69;;;16.56;100.00
64080;BME280;51042;49.696;10.808;2023-05-10T07:18:07;97892.56;;;16.52;97.84
64080;BME280;51042;49.696;10.808;2023-05-10T07:20:33;97899.53;;;16.22;99.20
64080;BME280;51042;49.696;10.808;2023-05-10T07:22:58;97894.19;;;16.18;97.97
64080;BME280;51042;49.696;10.808;2023-05-10T07:25:23;97895.09;;;16.50;97.97
64080;BME280;51042;49.696;10.808;2023-05-10T07:27:49;97910.88;;;16.90;97.08
64080;BME280;51042;49.696;10.808;2023-05-10T07:30:14;97904.09;;;17.23;93.67
64080;BME280;51042;49.696;10.808;2023-05-10T07:32:40;97909.03;;;17.39;90.90
64080;BME280;51042;49.696;10.808;2023-05-10T07:35:06;97915.84;;;17.38;91.21
64080;BME280;51042;49.696;10.808;2023-05-10T07:37:33;97909.69;;;17.28;89.14
64080;BME280;51042;49.696;10.808;2023-05-10T07:39:59;97920.34;;;17.04;91.97
64080;BME280;51042;49.696;10.808;2023-05-10T07:42:24;97917.34;;;16.82;93.31
64080;BME280;51042;49.696;10.808;2023-05-10T07:44:49;97919.03;;;16.33;94.86
64080;BME280;51042;49.696;10.808;2023-05-10T07:47:14;97915.63;;;16.03;98.20
64080;BME280;51042;49.696;10.808;2023-05-10T07:49:40;97918.41;;;16.03;100.00
64080;BME280;51042;49.696;10.808;2023-05-10T07:52:05;97925.53;;;15.89;99.68
64080;BME280;51042;49.696;10.808;2023-05-10T07:54:31;97927.19;;;15.81;100.00
64080;BME280;51042;49.696;10.808;2023-05-10T07:56:56;97933.94;;;15.80;100.00
64080;BME280;51042;49.696;10.808;2023-05-10T07:59:22;97930.50;;;15.85;100.00
64080;BME280;51042;49.696;10.808;2023-05-10T08:01:47;97929.00;;;16.05;100.00
64080;BME280;51042;49.696;10.808;2023-05-10T08:04:12;97923.13;;;16.17;99.61
64080;BME280;51042;49.696;10.808;2023-05-10T08:06:38;97925.91;;;16.38;99.63
64080;BME280;51042;49.696;10.808;2023-05-10T08:09:03;97935.38;;;16.51;97.10
64080;BME280;51042;49.696;10.808;2023-05-10T08:11:29;97926.75;;;16.90;94.71
64080;BME280;51042;49.696;10.808;2023-05-10T08:13:54;97929.56;;;16.95;93.56
64080;BME280;51042;49.696;10.808;2023-05-10T08:16:19;97938.00;;;17.06;93.57
64080;BME280;51042;49.696;10.808;2023-05-10T08:18:45;97940.06;;;16.86;92.67
64080;BME280;51042;49.696;10.808;2023-05-10T08:21:15;97933.84;;;16.70;95.95
64080;BME280;51042;49.696;10.808;2023-05-10T08:23:41;97952.13;;;16.62;94.72
64080;BME280;51042;49.696;10.808;2023-05-10T08:26:08;97946.06;;;16.38;95.13
64080;BME280;51042;49.696;10.808;2023-05-10T08:28:33;97960.09;;;16.14;96.75
64080;BME280;51042;49.696;10.808;2023-05-10T08:30:59;97954.75;;;16.11;99.52
64080;BME280;51042;49.696;10.808;2023-05-10T08:33:24;97965.81;;;16.11;99.92
64080;BME280;51042;49.696;10.808;2023-05-10T08:35:50;97966.31;;;15.74;100.00
64080;BME280;51042;49.696;10.808;2023-05-10T08:38:15;97961.13;;;15.97;100.00
64080;BME280;51042;49.696;10.808;2023-05-10T08:40:41;97958.78;;;16.30;100.00
64080;BME280;51042;49.696;10.808;2023-05-10T08:43:10;97964.44;;;16.82;95.62
64080;BME280;51042;49.696;10.808;2023-05-10T08:45:38;97964.41;;;17.02;91.67
64080;BME280;51042;49.696;10.808;2023-05-10T08:48:05;97969.88;;;17.22;91.00
64080;BME280;51042;49.696;10.808;2023-05-10T08:50:32;97966.06;;;17.14;89.82
64080;BME280;51042;49.696;10.808;2023-05-10T08:53:08;97975.09;;;17.40;89.10
64080;BME280;51042;49.696;10.808;2023-05-10T08:55:36;97968.81;;;17.71;86.33
64080;BME280;51042;49.696;10.808;2023-05-10T08:58:03;97971.75;;;17.93;84.76
64080;BME280;51042;49.696;10.808;2023-05-10T09:00:29;97968.00;;;17.97;82.85
64080;BME280;51042;49.696;10.808;2023-05-10T09:02:55;97979.31;;;18.35;84.03
64080;BME280;51042;49.696;10.808;2023-05-10T09:05:22;97978.31;;;19.03;79.28
64080;BME280;51042;49.696;10.808;2023-05-10T09:07:48;97979.06;;;18.98;76.40
64080;BME280;51042;49.696;10.808;2023-05-10T09:10:13;97970.50;;;19.18;76.41
64080;BME280;51042;49.696;10.808;2023-05-10T09:12:40;97973.78;;;19.00;76.76
64080;BME280;51042;49.696;10.808;2023-05-10T09:15:06;97976.28;;;18.98;76.25
64080;BME280;51042;49.696;10.808;2023-05-10T09:17:32;97976.78;;;18.86;77.29
64080;BME280;51042;49.696;10.808;2023-05-10T09:19:59;97980.59;;;18.99;74.50
64080;BME280;51042;49.696;10.808;2023-05-10T09:22:25;97983.19;;;19.36;74.41
64080;BME280;51042;49.696;10.808;2023-05-10T09:27:36;97984.19;;;19.28;70.58
64080;BME280;51042;49.696;10.808;2023-05-10T09:30:05;97980.22;;;18.16;72.03
64080;BME280;51042;49.696;10.808;2023-05-10T09:32:38;97983.75;;;18.11;74.58
64080;BME280;51042;49.696;10.808;2023-05-10T09:37:40;97977.59;;;19.25;70.44
64080;BME280;51042;49.696;10.808;2023-05-10T09:40:07;97979.88;;;20.16;68.08
64080;BME280;51042;49.696;10.808;2023-05-10T09:42:35;97979.91;;;19.99;67.16
64080;BME280;51042;49.696;10.808;2023-05-10T09:45:04;97978.91;;;19.80;65.29
64080;BME280;51042;49.696;10.808;2023-05-10T09:47:36;97978.66;;;19.61;66.82
64080;BME280;51042;49.696;10.808;2023-05-10T09:50:02;97985.75;;;19.68;66.77
64080;BME280;51042;49.696;10.808;2023-05-10T09:52:45;97980.69;;;19.94;65.26
64080;BME280;51042;49.696;10.808;2023-05-10T09:55:16;97981.66;;;20.13;65.75
64080;BME280;51042;49.696;10.808;2023-05-10T09:57:43;97988.06;;;20.77;60.50
64080;BME280;51042;49.696;10.808;2023-05-10T10:00:08;97979.66;;;20.83;58.79
64080;BME280;51042;49.696;10.808;2023-05-10T10:02:38;97976.44;;;20.62;60.56
64080;BME280;51042;49.696;10.808;2023-05-10T10:05:05;97979.44;;;20.75;60.74
64080;BME280;51042;49.696;10.808;2023-05-10T10:07:31;97984.56;;;20.65;59.42
64080;BME280;51042;49.696;10.808;2023-05-10T10:09:57;97975.44;;;21.11;58.96
64080;BME280;51042;49.696;10.808;2023-05-10T10:12:23;97976.78;;;20.99;58.90
64080;BME280;51042;49.696;10.808;2023-05-10T10:14:50;97976.25;;;21.06;59.62
64080;BME280;51042;49.696;10.808;2023-05-10T10:17:16;97970.09;;;21.19;57.46
64080;BME280;51042;49.696;10.808;2023-05-10T10:19:42;97966.56;;;21.18;59.62
64080;BME280;51042;49.696;10.808;2023-05-10T10:22:08;97967.28;;;21.25;58.22
64080;BME280;51042;49.696;10.808;2023-05-10T10:24:36;97959.88;;;21.87;57.67
64080;BME280;51042;49.696;10.808;2023-05-10T10:27:14;97960.09;;;22.43;54.72
64080;BME280;51042;49.696;10.808;2023-05-10T10:29:57;97956.94;;;21.79;54.35
64080;BME280;51042;49.696;10.808;2023-05-10T10:35:03;97971.22;;;20.94;56.90
64080;BME280;51042;49.696;10.808;2023-05-10T10:37:45;97972.75;;;20.37;59.57
64080;BME280;51042;49.696;10.808;2023-05-10T10:42:54;97964.25;;;19.46;62.87
64080;BME280;51042;49.696;10.808;2023-05-10T10:45:20;97963.25;;;19.71;63.49
64080;BME280;51042;49.696;10.808;2023-05-10T10:47:46;97965.50;;;19.73;62.31
64080;BME280;51042;49.696;10.808;2023-05-10T10:50:12;97961.72;;;19.70;62.75
64080;BME280;51042;49.696;10.808;2023-05-10T10:52:41;97973.81;;;19.28;64.01
64080;BME280;51042;49.696;10.808;2023-05-10T10:55:12;97974.03;;;19.13;64.16
64080;BME280;51042;49.696;10.808;2023-05-10T10:57:48;97976.59;;;19.11;63.81
64080;BME280;51042;49.696;10.808;2023-05-10T11:03:06;97973.44;;;18.65;67.00
64080;BME280;51042;49.696;10.808;2023-05-10T11:10:40;97971.25;;;19.19;64.37
64080;BME280;51042;49.696;10.808;2023-05-10T11:13:14;97976.34;;;19.26;63.00
64080;BME280;51042;49.696;10.808;2023-05-10T11:15:39;97969.53;;;19.33;63.71
64080;BME280;51042;49.696;10.808;2023-05-10T11:18:16;97978.63;;;19.39;65.89
64080;BME280;51042;49.696;10.808;2023-05-10T11:20:52;97966.78;;;19.77;64.67
64080;BME280;51042;49.696;10.808;2023-05-10T11:23:21;97978.13;;;19.90;63.58
64080;BME280;51042;49.696;10.808;2023-05-10T11:25:47;97973.78;;;20.17;62.32
64080;BME280;51042;49.696;10.808;2023-05-10T11:28:13;97961.13;;;20.11;63.33
64080;BME280;51042;49.696;10.808;2023-05-10T11:30:39;97973.34;;;19.69;64.12
64080;BME280;51042;49.696;10.808;2023-05-10T11:33:07;97975.13;;;19.72;64.49
64080;BME280;51042;49.696;10.808;2023-05-10T11:35:36;97969.28;;;19.92;63.96
64080;BME280;51042;49.696;10.808;2023-05-10T11:38:05;97974.09;;;19.86;65.40
64080;BME280;51042;49.696;10.808;2023-05-10T11:40:34;97980.16;;;20.12;64.18
64080;BME280;51042;49.696;10.808;2023-05-10T11:42:59;97971.75;;;20.23;64.30
64080;BME280;51042;49.696;10.808;2023-05-10T11:45:25;97975.53;;;20.43;64.86
64080;BME280;51042;49.696;10.808;2023-05-10T11:47:51;97974.53;;;20.34;64.41
64080;BME280;51042;49.696;10.808;2023-05-10T11:50:17;97967.91;;;20.49;63.63
64080;BME280;51042;49.696;10.808;2023-05-10T11:52:42;97981.44;;;20.80;63.33
64080;BME280;51042;49.696;10.808;2023-05-10T11:55:07;97972.41;;;20.63;63.55
64080;BME280;51042;49.696;10.808;2023-05-10T11:57:33;97973.44;;;20.60;61.23
64080;BME280;51042;49.696;10.808;2023-05-10T11:59:58;97978.91;;;20.82;62.52
64080;BME280;51042;49.696;10.808;2023-05-10T12:02:24;97971.28;;;20.83;62.97
64080;BME280;51042;49.696;10.808;2023-05-10T12:04:49;97971.84;;;21.22;61.17
64080;BME280;51042;49.696;10.808;2023-05-10T12:07:16;97971.53;;;21.67;59.59
64080;BME280;51042;49.696;10.808;2023-05-10T12:09:48;97965.38;;;22.28;56.97
64080;BME280;51042;49.696;10.808;2023-05-10T12:13:03;97972.56;;;22.42;55.09
64080;BME280;51042;49.696;10.808;2023-05-10T12:15:23;97973.81;;;22.65;54.13
64080;BME280;51042;49.696;10.808;2023-05-10T12:17:49;97976.28;;;22.50;53.63
64080;BME280;51042;49.696;10.808;2023-05-10T12:20:19;97974.13;;;20.77;57.72
64080;BME280;51042;49.696;10.808;2023-05-10T12:22:47;97972.66;;;21.11;58.71
64080;BME280;51042;49.696;10.808;2023-05-10T12:25:15;97977.88;;;20.79;56.95
64080;BME280;51042;49.696;10.808;2023-05-10T12:27:43;97976.63;;;20.81;58.47
64080;BME280;51042;49.696;10.808;2023-05-10T12:30:13;97978.88;;;21.34;58.24
64080;BME280;51042;49.696;10.808;2023-05-10T12:32:45;97973.31;;;21.29;55.52
64080;BME280;51042;49.696;10.808;2023-05-10T12:35:11;97978.91;;;21.29;56.23
64080;BME280;51042;49.696;10.808;2023-05-10T12:37:37;97984.19;;;21.38;56.39
64080;BME280;51042;49.696;10.808;2023-05-10T12:40:07;97983.09;;;21.05;56.41
64080;BME280;51042;49.696;10.808;2023-05-10T12:42:34;97986.28;;;20.74;58.66
64080;BME280;51042;49.696;10.808;2023-05-10T12:45:00;97985.84;;;21.16;56.94
64080;BME280;51042;49.696;10.808;2023-05-10T12:47:26;97981.34;;;21.43;55.95
64080;BME280;51042;49.696;10.808;2023-05-10T12:49:51;97976.06;;;21.70;55.41
64080;BME280;51042;49.696;10.808;2023-05-10T12:52:17;97985.59;;;21.14;57.24
64080;BME280;51042;49.696;10.808;2023-05-10T12:54:42;97982.94;;;21.33;56.84
64080;BME280;51042;49.696;10.808;2023-05-10T12:57:07;97981.72;;;21.23;56.63
64080;BME280;51042;49.696;10.808;2023-05-10T12:59:33;97984.41;;;21.40;56.57
64080;BME280;51042;49.696;10.808;2023-05-10T13:01:58;97978.78;;;21.45;55.99
64080;BME280;51042;49.696;10.808;2023-05-10T13:04:23;97975.34;;;21.64;56.45
64080;BME280;51042;49.696;10.808;2023-05-10T13:06:49;97967.34;;;21.79;54.84
64080;BME280;51042;49.696;10.808;2023-05-10T13:09:14;97979.50;;;21.51;55.23
64080;BME280;51042;49.696;10.808;2023-05-10T13:11:40;97980.97;;;21.58;54.92
64080;BME280;51042;49.696;10.808;2023-05-10T13:14:05;97986.72;;;21.36;56.65
64080;BME280;51042;49.696;10.808;2023-05-10T13:16:31;97979.66;;;21.29;57.07
64080;BME280;51042;49.696;10.808;2023-05-10T13:18:56;97978.47;;;21.13;56.71
64080;BME280;51042;49.696;10.808;2023-05-10T13:21:22;97978.34;;;20.95;57.56
64080;BME280;51042;49.696;10.808;2023-05-10T13:23:49;97981.81;;;20.60;56.95